EJU516K LFLL-LFBH
Flight info
| Callsign | EJU516K |
|---|---|
| Flight time | 0h 56m |
| Altitude | 28000 |
| Route | BELEP H38 TIS DCT LMG DCT CNA DCT ESUZE A25 MAREN |
| Aircraft | A20N/M-SDE2E3FGHIJ1RWXYZ/LB1G1 |
Departure
| Time | 2026-05-06 10:00 |
|---|---|
| Airport | Lyon Saint-Exupéry Airport (LFLL) |
Arrival
| Time | 2026-05-06 10:56 |
|---|---|
| Airport | La Rochelle Île de Ré Airport (LFBH) |
| Time | Latitude | Longitude | Altitude | Speed | Heading |
|---|---|---|---|---|---|
| 2026-05-06 09:24 | 45.71497 | 5.08289 | 799 ft | 0 kts | 15° |
| 2026-05-06 09:48 | 45.71479 | 5.08282 | 799 ft | 4 kts | 15° |
| 2026-05-06 09:48 | 45.71453 | 5.08271 | 800 ft | 4 kts | 21° |
| 2026-05-06 09:48 | 45.71430 | 5.08254 | 800 ft | 4 kts | 46° |
| 2026-05-06 09:48 | 45.71420 | 5.08225 | 800 ft | 2 kts | 104° |
| 2026-05-06 09:49 | 45.71421 | 5.08224 | 800 ft | 1 kts | 105° |
| 2026-05-06 09:53 | 45.71418 | 5.08235 | 800 ft | 8 kts | 106° |
| 2026-05-06 09:54 | 45.71408 | 5.08318 | 800 ft | 7 kts | 93° |
| 2026-05-06 09:54 | 45.71412 | 5.08375 | 800 ft | 4 kts | 83° |
| 2026-05-06 09:54 | 45.71414 | 5.08418 | 800 ft | 7 kts | 87° |
| 2026-05-06 09:54 | 45.71413 | 5.08475 | 801 ft | 4 kts | 103° |
| 2026-05-06 09:55 | 45.71406 | 5.08500 | 801 ft | 1 kts | 113° |
| 2026-05-06 09:55 | 45.71357 | 5.08531 | 801 ft | 14 kts | 172° |
| 2026-05-06 09:55 | 45.71272 | 5.08544 | 802 ft | 10 kts | 176° |
| 2026-05-06 09:55 | 45.71212 | 5.08548 | 803 ft | 7 kts | 177° |
| 2026-05-06 09:56 | 45.71178 | 5.08558 | 804 ft | 4 kts | 163° |
| 2026-05-06 09:56 | 45.71159 | 5.08567 | 804 ft | 2 kts | 155° |
| 2026-05-06 09:56 | 45.71154 | 5.08571 | 804 ft | 0 kts | 153° |
| 2026-05-06 09:57 | 45.71131 | 5.08607 | 804 ft | 13 kts | 115° |
| 2026-05-06 09:57 | 45.71105 | 5.08728 | 805 ft | 13 kts | 108° |
| 2026-05-06 09:57 | 45.71090 | 5.08798 | 805 ft | 0 kts | 107° |
| 2026-05-06 09:58 | 45.71076 | 5.08901 | 805 ft | 14 kts | 91° |
| 2026-05-06 09:58 | 45.71080 | 5.08984 | 805 ft | 2 kts | 85° |
| 2026-05-06 09:58 | 45.71102 | 5.09025 | 804 ft | 3 kts | 359° |
| 2026-05-06 09:59 | 45.71207 | 5.09013 | 802 ft | 43 kts | 355° |
| 2026-05-06 09:59 | 45.71730 | 5.08948 | 800 ft | 105 kts | 355° |
| 2026-05-06 09:59 | 45.72626 | 5.08841 | 786 ft | 152 kts | 355° |
| 2026-05-06 09:59 | 45.73743 | 5.08699 | 1141 ft | 162 kts | 355° |
| 2026-05-06 10:00 | 45.74874 | 5.08544 | 1771 ft | 165 kts | 354° |
| 2026-05-06 10:00 | 45.76009 | 5.08384 | 2453 ft | 163 kts | 353° |
| 2026-05-06 10:00 | 45.77186 | 5.08231 | 2910 ft | 179 kts | 353° |
| 2026-05-06 10:00 | 45.78486 | 5.08084 | 3367 ft | 197 kts | 353° |
| 2026-05-06 10:01 | 45.79938 | 5.07930 | 3839 ft | 221 kts | 354° |
| 2026-05-06 10:01 | 45.81533 | 5.07769 | 4500 ft | 237 kts | 354° |
| 2026-05-06 10:01 | 45.83245 | 5.07580 | 5163 ft | 257 kts | 353° |
| 2026-05-06 10:01 | 45.85049 | 5.07358 | 5990 ft | 265 kts | 352° |
| 2026-05-06 10:02 | 45.86890 | 5.07043 | 6938 ft | 268 kts | 342° |
| 2026-05-06 10:02 | 45.88530 | 5.05832 | 7829 ft | 266 kts | 316° |
| 2026-05-06 10:02 | 45.89630 | 5.03731 | 8835 ft | 265 kts | 292° |
| 2026-05-06 10:02 | 45.90000 | 5.01149 | 9798 ft | 268 kts | 268° |
| 2026-05-06 10:03 | 45.89558 | 4.98509 | 10482 ft | 284 kts | 245° |
| 2026-05-06 10:03 | 45.88543 | 4.95960 | 10856 ft | 308 kts | 240° |
| 2026-05-06 10:03 | 45.87373 | 4.93256 | 11384 ft | 323 kts | 239° |
| 2026-05-06 10:03 | 45.86175 | 4.90502 | 12241 ft | 327 kts | 238° |
| 2026-05-06 10:04 | 45.84975 | 4.87707 | 13042 ft | 332 kts | 238° |
| 2026-05-06 10:04 | 45.83768 | 4.84870 | 13895 ft | 335 kts | 238° |
| 2026-05-06 10:04 | 45.82550 | 4.81992 | 14602 ft | 340 kts | 238° |
| 2026-05-06 10:04 | 45.81323 | 4.79059 | 15291 ft | 346 kts | 238° |
| 2026-05-06 10:05 | 45.80099 | 4.76116 | 15976 ft | 351 kts | 238° |
| 2026-05-06 10:05 | 45.78961 | 4.72991 | 16659 ft | 357 kts | 247° |
| 2026-05-06 10:05 | 45.78299 | 4.69529 | 17321 ft | 366 kts | 259° |
| 2026-05-06 10:05 | 45.78188 | 4.65862 | 17968 ft | 373 kts | 270° |
| 2026-05-06 10:06 | 45.78283 | 4.62114 | 18579 ft | 378 kts | 269° |
| 2026-05-06 10:06 | 45.78370 | 4.58319 | 19180 ft | 383 kts | 270° |
| 2026-05-06 10:06 | 45.78450 | 4.54498 | 19772 ft | 387 kts | 270° |
| 2026-05-06 10:06 | 45.78526 | 4.50615 | 20365 ft | 391 kts | 270° |
| 2026-05-06 10:07 | 45.78599 | 4.46697 | 20937 ft | 396 kts | 270° |
| 2026-05-06 10:07 | 45.78671 | 4.42737 | 21512 ft | 400 kts | 270° |
| 2026-05-06 10:07 | 45.78742 | 4.38744 | 22073 ft | 405 kts | 270° |
| 2026-05-06 10:07 | 45.78813 | 4.34671 | 22636 ft | 409 kts | 270° |
| 2026-05-06 10:08 | 45.78883 | 4.30612 | 22992 ft | 408 kts | 270° |
| 2026-05-06 10:08 | 45.78953 | 4.26507 | 23290 ft | 415 kts | 270° |
| 2026-05-06 10:08 | 45.79022 | 4.22398 | 23747 ft | 419 kts | 270° |
| 2026-05-06 10:08 | 45.79091 | 4.18185 | 24286 ft | 420 kts | 270° |
| 2026-05-06 10:09 | 45.79209 | 4.14072 | 24752 ft | 423 kts | 274° |
| 2026-05-06 10:09 | 45.79680 | 4.09851 | 25205 ft | 426 kts | 282° |
| 2026-05-06 10:09 | 45.80347 | 4.05739 | 25654 ft | 429 kts | 282° |
| 2026-05-06 10:09 | 45.81023 | 4.01496 | 26118 ft | 431 kts | 281° |
| 2026-05-06 10:10 | 45.81686 | 3.97285 | 26551 ft | 434 kts | 281° |
| 2026-05-06 10:10 | 45.82349 | 3.93061 | 26976 ft | 436 kts | 281° |
| 2026-05-06 10:10 | 45.83007 | 3.88852 | 27358 ft | 439 kts | 281° |
| 2026-05-06 10:10 | 45.83675 | 3.84568 | 27740 ft | 442 kts | 281° |
| 2026-05-06 10:11 | 45.84348 | 3.80250 | 27895 ft | 444 kts | 281° |
| 2026-05-06 10:11 | 45.85019 | 3.75929 | 27905 ft | 444 kts | 281° |
| 2026-05-06 10:11 | 45.85689 | 3.71608 | 27905 ft | 443 kts | 281° |
| 2026-05-06 10:11 | 45.86357 | 3.67289 | 27905 ft | 444 kts | 281° |
| 2026-05-06 10:12 | 45.87014 | 3.63026 | 27909 ft | 444 kts | 281° |
| 2026-05-06 10:12 | 45.87672 | 3.58687 | 27906 ft | 443 kts | 279° |
| 2026-05-06 10:12 | 45.88074 | 3.54308 | 27908 ft | 442 kts | 272° |
| 2026-05-06 10:12 | 45.88113 | 3.49909 | 27910 ft | 440 kts | 266° |
| 2026-05-06 10:13 | 45.88027 | 3.45522 | 27905 ft | 440 kts | 266° |
| 2026-05-06 10:13 | 45.87955 | 3.41122 | 27910 ft | 441 kts | 267° |
| 2026-05-06 10:13 | 45.87886 | 3.36677 | 27909 ft | 440 kts | 267° |
| 2026-05-06 10:13 | 45.87816 | 3.32345 | 27911 ft | 440 kts | 267° |
| 2026-05-06 10:14 | 45.87743 | 3.27965 | 27910 ft | 440 kts | 266° |
| 2026-05-06 10:14 | 45.87667 | 3.23556 | 27912 ft | 440 kts | 266° |
| 2026-05-06 10:14 | 45.87587 | 3.19162 | 27907 ft | 441 kts | 266° |
| 2026-05-06 10:14 | 45.87506 | 3.14770 | 27915 ft | 440 kts | 267° |
| 2026-05-06 10:15 | 45.87425 | 3.10381 | 27912 ft | 443 kts | 266° |
| 2026-05-06 10:15 | 45.87339 | 3.06005 | 27909 ft | 441 kts | 266° |
| 2026-05-06 10:15 | 45.87253 | 3.01573 | 27910 ft | 441 kts | 266° |
| 2026-05-06 10:15 | 45.87164 | 2.97175 | 27908 ft | 441 kts | 266° |
| 2026-05-06 10:16 | 45.87074 | 2.92781 | 27908 ft | 442 kts | 266° |
| 2026-05-06 10:16 | 45.86982 | 2.88369 | 27907 ft | 442 kts | 266° |
| 2026-05-06 10:16 | 45.86889 | 2.83969 | 27908 ft | 440 kts | 266° |
| 2026-05-06 10:16 | 45.86796 | 2.79621 | 27902 ft | 440 kts | 266° |
| 2026-05-06 10:17 | 45.86700 | 2.75193 | 27900 ft | 442 kts | 266° |
| 2026-05-06 10:17 | 45.86603 | 2.70838 | 27904 ft | 442 kts | 267° |
| 2026-05-06 10:17 | 45.86501 | 2.66396 | 27904 ft | 440 kts | 266° |
| 2026-05-06 10:17 | 45.86399 | 2.62025 | 27901 ft | 438 kts | 267° |
| 2026-05-06 10:18 | 45.86297 | 2.57637 | 27903 ft | 441 kts | 266° |
| 2026-05-06 10:18 | 45.86193 | 2.53253 | 27903 ft | 442 kts | 266° |
| 2026-05-06 10:18 | 45.86087 | 2.48870 | 27901 ft | 440 kts | 266° |
| 2026-05-06 10:18 | 45.85978 | 2.44450 | 27899 ft | 439 kts | 267° |
| 2026-05-06 10:19 | 45.85869 | 2.40062 | 27902 ft | 441 kts | 267° |
| 2026-05-06 10:19 | 45.85759 | 2.35671 | 27894 ft | 442 kts | 266° |
| 2026-05-06 10:19 | 45.85644 | 2.31277 | 27895 ft | 438 kts | 267° |
| 2026-05-06 10:19 | 45.85530 | 2.26925 | 27898 ft | 436 kts | 267° |
| 2026-05-06 10:20 | 45.85416 | 2.22566 | 27899 ft | 439 kts | 267° |
| 2026-05-06 10:20 | 45.85299 | 2.18185 | 27897 ft | 439 kts | 267° |
| 2026-05-06 10:20 | 45.85181 | 2.13832 | 27899 ft | 439 kts | 267° |
| 2026-05-06 10:20 | 45.85061 | 2.09486 | 27899 ft | 438 kts | 267° |
| 2026-05-06 10:21 | 45.84938 | 2.05083 | 27899 ft | 438 kts | 267° |
| 2026-05-06 10:21 | 45.84814 | 2.00715 | 27897 ft | 439 kts | 267° |
| 2026-05-06 10:21 | 45.84688 | 1.96331 | 27896 ft | 439 kts | 267° |
| 2026-05-06 10:21 | 45.84559 | 1.91954 | 27900 ft | 440 kts | 268° |
| 2026-05-06 10:22 | 45.84429 | 1.87579 | 27895 ft | 438 kts | 268° |
| 2026-05-06 10:22 | 45.84298 | 1.83204 | 27895 ft | 440 kts | 268° |
| 2026-05-06 10:22 | 45.84165 | 1.78805 | 27896 ft | 443 kts | 268° |
| 2026-05-06 10:22 | 45.84030 | 1.74414 | 27895 ft | 439 kts | 268° |
| 2026-05-06 10:23 | 45.83895 | 1.70041 | 27897 ft | 439 kts | 268° |
| 2026-05-06 10:23 | 45.83757 | 1.65663 | 27900 ft | 441 kts | 268° |
| 2026-05-06 10:23 | 45.83617 | 1.61268 | 27898 ft | 442 kts | 268° |
| 2026-05-06 10:23 | 45.83476 | 1.56877 | 27895 ft | 440 kts | 268° |
| 2026-05-06 10:24 | 45.83332 | 1.52488 | 27900 ft | 440 kts | 268° |
| 2026-05-06 10:24 | 45.83187 | 1.48096 | 27905 ft | 443 kts | 268° |
| 2026-05-06 10:24 | 45.83040 | 1.43669 | 27905 ft | 444 kts | 268° |
| 2026-05-06 10:24 | 45.82942 | 1.40751 | 27904 ft | 443 kts | 268° |
| 2026-05-06 10:25 | 45.82793 | 1.36349 | 27908 ft | 442 kts | 268° |
| 2026-05-06 10:25 | 45.82642 | 1.31952 | 27909 ft | 441 kts | 268° |
| 2026-05-06 10:25 | 45.82490 | 1.27571 | 27910 ft | 443 kts | 268° |
| 2026-05-06 10:25 | 45.82334 | 1.23137 | 27910 ft | 444 kts | 268° |
| 2026-05-06 10:26 | 45.82177 | 1.18721 | 27911 ft | 442 kts | 268° |
| 2026-05-06 10:26 | 45.82019 | 1.14328 | 27919 ft | 442 kts | 268° |
| 2026-05-06 10:26 | 45.81859 | 1.09922 | 27907 ft | 442 kts | 268° |
| 2026-05-06 10:26 | 45.81699 | 1.05518 | 27907 ft | 442 kts | 268° |
| 2026-05-06 10:27 | 45.81427 | 1.01130 | 27911 ft | 443 kts | 263° |
| 2026-05-06 10:27 | 45.80930 | 0.96785 | 27904 ft | 442 kts | 262° |
| 2026-05-06 10:27 | 45.80441 | 0.92429 | 27886 ft | 443 kts | 262° |
| 2026-05-06 10:27 | 45.79960 | 0.88066 | 27896 ft | 443 kts | 262° |
| 2026-05-06 10:28 | 45.79482 | 0.83753 | 27892 ft | 443 kts | 262° |
| 2026-05-06 10:28 | 45.78990 | 0.79355 | 27878 ft | 443 kts | 262° |
| 2026-05-06 10:28 | 45.78499 | 0.75006 | 27879 ft | 439 kts | 262° |
| 2026-05-06 10:28 | 45.78011 | 0.70705 | 27887 ft | 438 kts | 262° |
| 2026-05-06 10:29 | 45.77519 | 0.66379 | 27892 ft | 440 kts | 262° |
| 2026-05-06 10:29 | 45.77027 | 0.62070 | 27892 ft | 438 kts | 262° |
| 2026-05-06 10:29 | 45.76535 | 0.57788 | 27895 ft | 435 kts | 262° |
| 2026-05-06 10:29 | 45.76043 | 0.53510 | 27907 ft | 436 kts | 262° |
| 2026-05-06 10:30 | 45.75547 | 0.49217 | 27900 ft | 436 kts | 262° |
| 2026-05-06 10:30 | 45.75051 | 0.44933 | 27910 ft | 436 kts | 262° |
| 2026-05-06 10:30 | 45.74554 | 0.40652 | 27904 ft | 436 kts | 262° |
| 2026-05-06 10:30 | 45.74053 | 0.36372 | 27905 ft | 436 kts | 263° |
| 2026-05-06 10:31 | 45.73553 | 0.32102 | 27914 ft | 437 kts | 263° |
| 2026-05-06 10:31 | 45.73058 | 0.27879 | 27911 ft | 437 kts | 263° |
| 2026-05-06 10:31 | 45.72543 | 0.23511 | 27912 ft | 436 kts | 263° |
| 2026-05-06 10:31 | 45.72037 | 0.19227 | 27911 ft | 437 kts | 262° |
| 2026-05-06 10:32 | 45.71530 | 0.14947 | 27911 ft | 437 kts | 262° |
| 2026-05-06 10:32 | 45.71021 | 0.10669 | 27911 ft | 437 kts | 262° |
| 2026-05-06 10:32 | 45.70509 | 0.06389 | 27908 ft | 437 kts | 262° |
| 2026-05-06 10:32 | 45.70002 | 0.02158 | 27719 ft | 437 kts | 262° |
| 2026-05-06 10:33 | 45.69489 | -0.02100 | 27413 ft | 434 kts | 263° |
| 2026-05-06 10:33 | 45.68975 | -0.06350 | 26835 ft | 434 kts | 263° |
| 2026-05-06 10:33 | 45.68462 | -0.10594 | 26268 ft | 431 kts | 263° |
| 2026-05-06 10:33 | 45.67956 | -0.14771 | 25701 ft | 426 kts | 263° |
| 2026-05-06 10:34 | 45.67447 | -0.18957 | 25088 ft | 423 kts | 262° |
| 2026-05-06 10:34 | 45.66946 | -0.23058 | 24581 ft | 417 kts | 262° |
| 2026-05-06 10:34 | 45.66415 | -0.27128 | 24019 ft | 415 kts | 258° |
| 2026-05-06 10:34 | 45.65520 | -0.31024 | 23474 ft | 413 kts | 248° |
| 2026-05-06 10:35 | 45.64200 | -0.34605 | 22885 ft | 410 kts | 238° |
| 2026-05-06 10:35 | 45.62554 | -0.37899 | 22377 ft | 405 kts | 235° |
| 2026-05-06 10:35 | 45.60906 | -0.41133 | 21828 ft | 400 kts | 235° |
| 2026-05-06 10:35 | 45.59288 | -0.44330 | 21297 ft | 395 kts | 235° |
| 2026-05-06 10:36 | 45.57692 | -0.47485 | 20762 ft | 390 kts | 235° |
| 2026-05-06 10:36 | 45.56107 | -0.50612 | 20230 ft | 386 kts | 236° |
| 2026-05-06 10:36 | 45.54541 | -0.53698 | 19692 ft | 382 kts | 235° |
| 2026-05-06 10:36 | 45.52989 | -0.56753 | 19172 ft | 380 kts | 235° |
| 2026-05-06 10:37 | 45.51450 | -0.59778 | 18593 ft | 380 kts | 235° |
| 2026-05-06 10:37 | 45.49886 | -0.62848 | 18023 ft | 379 kts | 235° |
| 2026-05-06 10:37 | 45.48342 | -0.65871 | 17477 ft | 374 kts | 235° |
| 2026-05-06 10:37 | 45.46827 | -0.68837 | 17046 ft | 367 kts | 235° |
| 2026-05-06 10:38 | 45.45334 | -0.71759 | 16529 ft | 362 kts | 235° |
| 2026-05-06 10:38 | 45.43861 | -0.74640 | 16044 ft | 358 kts | 235° |
| 2026-05-06 10:38 | 45.42405 | -0.77485 | 15549 ft | 354 kts | 235° |
| 2026-05-06 10:38 | 45.40960 | -0.80301 | 15062 ft | 350 kts | 235° |
| 2026-05-06 10:39 | 45.39644 | -0.83184 | 14571 ft | 345 kts | 248° |
| 2026-05-06 10:39 | 45.39071 | -0.86454 | 14056 ft | 340 kts | 269° |
| 2026-05-06 10:39 | 45.39395 | -0.89727 | 13549 ft | 334 kts | 291° |
| 2026-05-06 10:39 | 45.40563 | -0.92522 | 13059 ft | 328 kts | 313° |
| 2026-05-06 10:40 | 45.42357 | -0.94455 | 12592 ft | 323 kts | 334° |
| 2026-05-06 10:40 | 45.44478 | -0.95436 | 12131 ft | 320 kts | 345° |
| 2026-05-06 10:40 | 45.46585 | -0.96192 | 11687 ft | 317 kts | 345° |
| 2026-05-06 10:40 | 45.48756 | -0.96977 | 11206 ft | 314 kts | 345° |
| 2026-05-06 10:41 | 45.50865 | -0.97750 | 10750 ft | 312 kts | 345° |
| 2026-05-06 10:41 | 45.52922 | -0.98512 | 10337 ft | 308 kts | 345° |
| 2026-05-06 10:41 | 45.54983 | -0.99280 | 10203 ft | 295 kts | 345° |
| 2026-05-06 10:41 | 45.56942 | -1.00012 | 10014 ft | 286 kts | 345° |
| 2026-05-06 10:42 | 45.58840 | -1.00723 | 9821 ft | 278 kts | 345° |
| 2026-05-06 10:42 | 45.60721 | -1.01428 | 9693 ft | 282 kts | 345° |
| 2026-05-06 10:42 | 45.62643 | -1.02150 | 9355 ft | 288 kts | 345° |
| 2026-05-06 10:42 | 45.64576 | -1.02875 | 8975 ft | 288 kts | 345° |
| 2026-05-06 10:43 | 45.66491 | -1.03593 | 8687 ft | 282 kts | 345° |
| 2026-05-06 10:43 | 45.68370 | -1.04296 | 8380 ft | 277 kts | 345° |
| 2026-05-06 10:43 | 45.70250 | -1.05002 | 7915 ft | 278 kts | 345° |
| 2026-05-06 10:44 | 45.74035 | -1.05733 | 7123 ft | 275 kts | 7° |
| 2026-05-06 10:44 | 45.75880 | -1.05035 | 6752 ft | 273 kts | 17° |
| 2026-05-06 10:44 | 45.77678 | -1.04203 | 6390 ft | 271 kts | 17° |
| 2026-05-06 10:44 | 45.79470 | -1.03390 | 6009 ft | 269 kts | 17° |
| 2026-05-06 10:45 | 45.81245 | -1.02588 | 5641 ft | 266 kts | 16° |
| 2026-05-06 10:45 | 45.82990 | -1.01799 | 5373 ft | 259 kts | 17° |
| 2026-05-06 10:45 | 45.84667 | -1.01040 | 5270 ft | 246 kts | 17° |
| 2026-05-06 10:45 | 45.86263 | -1.00318 | 5169 ft | 234 kts | 16° |
| 2026-05-06 10:46 | 45.87787 | -0.99628 | 4986 ft | 227 kts | 16° |
| 2026-05-06 10:46 | 45.89291 | -0.98947 | 4695 ft | 226 kts | 17° |
| 2026-05-06 10:46 | 45.90777 | -0.98275 | 4421 ft | 222 kts | 16° |
| 2026-05-06 10:46 | 45.92236 | -0.97613 | 4160 ft | 216 kts | 17° |
| 2026-05-06 10:47 | 45.93648 | -0.96972 | 3902 ft | 211 kts | 17° |
| 2026-05-06 10:47 | 45.95054 | -0.96334 | 3577 ft | 209 kts | 16° |
| 2026-05-06 10:47 | 45.96415 | -0.95715 | 3305 ft | 206 kts | 16° |
| 2026-05-06 10:47 | 45.97784 | -0.95094 | 2902 ft | 208 kts | 17° |
| 2026-05-06 10:48 | 45.99162 | -0.94468 | 2587 ft | 207 kts | 17° |
| 2026-05-06 10:48 | 46.00518 | -0.93850 | 2491 ft | 205 kts | 17° |
| 2026-05-06 10:48 | 46.01884 | -0.93227 | 2480 ft | 205 kts | 17° |
| 2026-05-06 10:48 | 46.03259 | -0.92601 | 2477 ft | 207 kts | 17° |
| 2026-05-06 10:49 | 46.04633 | -0.91972 | 2485 ft | 209 kts | 17° |
| 2026-05-06 10:49 | 46.05998 | -0.91342 | 2482 ft | 201 kts | 17° |
| 2026-05-06 10:49 | 46.07284 | -0.90745 | 2474 ft | 186 kts | 17° |
| 2026-05-06 10:49 | 46.08453 | -0.90194 | 2496 ft | 171 kts | 17° |
| 2026-05-06 10:50 | 46.09615 | -0.89661 | 2485 ft | 177 kts | 17° |
| 2026-05-06 10:50 | 46.10759 | -0.89129 | 2478 ft | 172 kts | 14° |
| 2026-05-06 10:50 | 46.11941 | -0.89251 | 2483 ft | 175 kts | 335° |
| 2026-05-06 10:50 | 46.12884 | -0.90384 | 2480 ft | 179 kts | 317° |
| 2026-05-06 10:51 | 46.13726 | -0.91724 | 2483 ft | 180 kts | 311° |
| 2026-05-06 10:51 | 46.14478 | -0.93101 | 2478 ft | 169 kts | 311° |
| 2026-05-06 10:51 | 46.15142 | -0.94411 | 2485 ft | 156 kts | 303° |
| 2026-05-06 10:51 | 46.15685 | -0.95817 | 2493 ft | 162 kts | 301° |
| 2026-05-06 10:52 | 46.16205 | -0.97237 | 2498 ft | 160 kts | 301° |
| 2026-05-06 10:52 | 46.16710 | -0.98658 | 2497 ft | 161 kts | 301° |
| 2026-05-06 10:52 | 46.17156 | -1.00163 | 2496 ft | 164 kts | 291° |
| 2026-05-06 10:52 | 46.17376 | -1.01793 | 2499 ft | 168 kts | 279° |
| 2026-05-06 10:53 | 46.17455 | -1.03491 | 2354 ft | 171 kts | 276° |
| 2026-05-06 10:53 | 46.17497 | -1.05196 | 2103 ft | 169 kts | 277° |
| 2026-05-06 10:53 | 46.17546 | -1.06854 | 1877 ft | 162 kts | 276° |
| 2026-05-06 10:53 | 46.17596 | -1.08498 | 1632 ft | 162 kts | 276° |
| 2026-05-06 10:54 | 46.17639 | -1.10044 | 1396 ft | 146 kts | 276° |
| 2026-05-06 10:54 | 46.17681 | -1.11447 | 1185 ft | 135 kts | 276° |
| 2026-05-06 10:54 | 46.17723 | -1.12803 | 991 ft | 138 kts | 276° |
| 2026-05-06 10:54 | 46.17760 | -1.14148 | 785 ft | 133 kts | 279° |
| 2026-05-06 10:55 | 46.17805 | -1.15494 | 598 ft | 134 kts | 278° |
| 2026-05-06 10:55 | 46.17836 | -1.16789 | 425 ft | 134 kts | 276° |
| 2026-05-06 10:55 | 46.17868 | -1.18123 | 195 ft | 132 kts | 277° |
| 2026-05-06 10:55 | 46.17910 | -1.19426 | 81 ft | 125 kts | 276° |
| 2026-05-06 10:56 | 46.17943 | -1.20312 | 66 ft | 54 kts | 273° |
| 2026-05-06 10:56 | 46.17957 | -1.20822 | 67 ft | 29 kts | 271° |
| 2026-05-06 10:56 | 46.17934 | -1.20910 | 66 ft | 6 kts | 283° |
| 2026-05-06 10:56 | 46.17960 | -1.20903 | 64 ft | 3 kts | 81° |
| 2026-05-06 10:57 | 46.17956 | -1.20709 | 59 ft | 29 kts | 91° |
| 2026-05-06 10:57 | 46.17952 | -1.20417 | 69 ft | 29 kts | 89° |
| 2026-05-06 10:57 | 46.17937 | -1.20130 | 75 ft | 28 kts | 94° |
| 2026-05-06 10:57 | 46.17930 | -1.19852 | 77 ft | 28 kts | 95° |
| 2026-05-06 10:58 | 46.17922 | -1.19584 | 75 ft | 14 kts | 96° |
| 2026-05-06 10:58 | 46.17872 | -1.19527 | 73 ft | 11 kts | 166° |
| 2026-05-06 10:58 | 46.17779 | -1.19529 | 72 ft | 16 kts | 182° |
| 2026-05-06 10:58 | 46.17759 | -1.19529 | 72 ft | 0 kts | 182° |
| 2026-05-06 10:59 | 46.17755 | -1.19530 | 71 ft | 2 kts | 182° |
| 2026-05-06 10:59 | 46.17727 | -1.19529 | 69 ft | 6 kts | 177° |
| 2026-05-06 10:59 | 46.17689 | -1.19502 | 68 ft | 7 kts | 106° |
| 2026-05-06 11:00 | 46.17685 | -1.19459 | 77 ft | 0 kts | 91° |
| 2026-05-06 11:00 | 46.17686 | -1.19433 | 68 ft | 6 kts | 87° |
| 2026-05-06 11:00 | 46.17687 | -1.19351 | 77 ft | 9 kts | 102° |
| 2026-05-06 11:00 | 46.17668 | -1.19329 | 74 ft | 0 kts | 142° |
| 2026-05-06 11:01 | 46.17663 | -1.19321 | 74 ft | 5 kts | 136° |
| 2026-05-06 11:01 | 46.17643 | -1.19296 | 69 ft | 0 kts | 140° |